Terminal Aerodrome Forecast
Issued by NWS Charleston, WV

Current Version | Previous Version | Graphics & Text | Print | Product List | Glossary On
Versions: 1 2 3 4 5 6 7 8 9 10 11 12 13 14 15 16 17 18 19 20 21 22 23 24 25
000
FTUS41 KRLX 160306 AAA
TAFBKW
TAF AMD
KBKW 160306Z 1603/1624 22011G22KT P6SM BKN080
     FM160700 24017G22KT P6SM BKN035 OVC050
     FM161000 24015G26KT 4SM RA BR SCT007 OVC015
     FM161300 28012KT 3SM +RA BR OVC008
     FM161800 32011KT 6SM -SHRA BR OVC008=

USA.gov is the U.S. government's official web portal to all federal, state and local government web resources and services.